Time;durP1;ratioP1;P1;durP2;ratioP2;P2;SDS_P1;SDS_P2;PMS_P1;PMS_P2;Temp;Humidity;BMP_temperature;BMP_pressure;BME280_temperature;BME280_humidity;BME280_pressure;Samples;Min_cycle;Max_cycle;Signal;HPM_P1;HPM_P2
2024/04/01 00:01:51;;;;;;;23.03;20.47;;;;;;;;;;4903508;28;20228;-74
2024/04/01 00:04:16;;;;;;;24.43;20.50;;;;;;;;;;4905544;28;20235;-74
2024/04/01 00:06:45;;;;;;;26.00;22.30;;;;;;;;;;4919485;28;20228;-74
2024/04/01 00:09:10;;;;;;;25.23;21.50;;;;;;;;;;4904008;29;20298;-74
2024/04/01 00:11:38;;;;;;;24.43;21.83;;;;;;;;;;4937646;28;20587;-74
2024/04/01 00:14:04;;;;;;;24.87;22.27;;;;;;;;;;4903956;28;20240;-74
2024/04/01 00:16:31;;;;;;;25.00;21.50;;;;;;;;;;4905060;29;20227;-74
2024/04/01 00:19:02;;;;;;;26.13;23.43;;;;;;;;;;4906158;28;20295;-74
2024/04/01 00:21:30;;;;;;;30.87;23.90;;;;;;;;;;4905868;29;20243;-74
2024/04/01 00:24:00;;;;;;;27.47;23.17;;;;;;;;;;4919112;28;20225;-74
2024/04/01 00:26:25;;;;;;;26.93;23.30;;;;;;;;;;4918246;28;20230;-74
2024/04/01 00:28:53;;;;;;;26.00;22.60;;;;;;;;;;4918511;28;20220;-74
2024/04/01 00:31:29;;;;;;;28.17;23.23;;;;;;;;;;4920186;28;20223;-73
2024/04/01 00:33:55;;;;;;;29.47;23.63;;;;;;;;;;4902427;28;20243;-74
2024/04/01 00:36:28;;;;;;;27.50;24.50;;;;;;;;;;4932698;28;20725;-73
2024/04/01 00:38:56;;;;;;;27.87;24.17;;;;;;;;;;4920894;28;20782;-75
2024/04/01 00:41:22;;;;;;;27.73;23.40;;;;;;;;;;4933983;28;20227;-73
2024/04/01 00:43:52;;;;;;;26.67;22.80;;;;;;;;;;4895172;28;20222;-73
2024/04/01 00:46:22;;;;;;;26.63;23.57;;;;;;;;;;4920131;28;20259;-73
2024/04/01 00:48:47;;;;;;;27.30;23.40;;;;;;;;;;4920441;28;20320;-73
2024/04/01 00:51:16;;;;;;;29.33;24.67;;;;;;;;;;4917540;28;20307;-72
2024/04/01 00:53:42;;;;;;;28.70;24.70;;;;;;;;;;4918545;28;20284;-73
2024/04/01 00:56:10;;;;;;;28.47;25.30;;;;;;;;;;4902755;29;20220;-73
2024/04/01 00:58:35;;;;;;;28.60;24.80;;;;;;;;;;4905310;29;20223;-73
2024/04/01 01:01:07;;;;;;;28.77;25.67;;;;;;;;;;4916771;28;20220;-73
2024/04/01 01:03:33;;;;;;;28.23;25.13;;;;;;;;;;4927218;28;20710;-74
2024/04/01 01:05:58;;;;;;;30.57;25.40;;;;;;;;;;4905181;29;20228;-73
2024/04/01 01:08:26;;;;;;;27.40;24.50;;;;;;;;;;4918624;28;20216;-74
2024/04/01 01:10:51;;;;;;;28.27;25.17;;;;;;;;;;4909746;29;20492;-73
2024/04/01 01:13:21;;;;;;;27.97;24.97;;;;;;;;;;4910444;28;20237;-74
2024/04/01 01:15:49;;;;;;;28.60;25.30;;;;;;;;;;4916479;29;20219;-73
2024/04/01 01:18:17;;;;;;;28.73;25.17;;;;;;;;;;4918521;29;20773;-73
2024/04/01 01:20:45;;;;;;;33.53;26.83;;;;;;;;;;4904692;29;20216;-73
2024/04/01 01:23:10;;;;;;;31.53;25.30;;;;;;;;;;4918900;28;20699;-73
2024/04/01 01:25:37;;;;;;;29.53;26.37;;;;;;;;;;4905372;29;20283;-73
2024/04/01 01:28:05;;;;;;;32.07;26.53;;;;;;;;;;4908313;28;20225;-74
2024/04/01 01:30:37;;;;;;;31.90;26.03;;;;;;;;;;4921295;28;20240;-72
2024/04/01 01:33:08;;;;;;;30.50;27.20;;;;;;;;;;4916417;28;20255;-73
2024/04/01 01:35:36;;;;;;;31.80;27.67;;;;;;;;;;4902396;28;20227;-74
2024/04/01 01:38:06;;;;;;;31.40;25.50;;;;;;;;;;4900614;29;20260;-74
2024/04/01 01:40:34;;;;;;;30.40;26.33;;;;;;;;;;4920160;29;20607;-73
2024/04/01 01:43:01;;;;;;;32.17;26.73;;;;;;;;;;4918449;28;20240;-74
2024/04/01 01:45:27;;;;;;;30.33;27.00;;;;;;;;;;4904114;29;20232;-73
2024/04/01 01:47:52;;;;;;;32.93;26.13;;;;;;;;;;4917949;29;20805;-73
2024/04/01 01:50:18;;;;;;;33.00;26.53;;;;;;;;;;4907034;28;20244;-73
2024/04/01 01:52:43;;;;;;;32.10;27.17;;;;;;;;;;4906376;29;20239;-74
2024/04/01 01:55:12;;;;;;;33.37;26.20;;;;;;;;;;4919295;28;20227;-74
2024/04/01 01:57:37;;;;;;;31.60;26.90;;;;;;;;;;4910860;29;20253;-73
2024/04/01 02:00:13;;;;;;;29.57;26.37;;;;;;;;;;4901172;29;20236;-74
2024/04/01 02:02:42;;;;;;;32.13;26.33;;;;;;;;;;4932323;28;20239;-73
2024/04/01 02:05:07;;;;;;;35.53;27.03;;;;;;;;;;4934016;28;20263;-74
2024/04/01 02:07:33;;;;;;;33.03;26.93;;;;;;;;;;4918181;28;20244;-74
2024/04/01 02:10:01;;;;;;;30.27;26.73;;;;;;;;;;4926379;28;20694;-73
2024/04/01 02:12:27;;;;;;;31.57;27.13;;;;;;;;;;4903919;29;20226;-74
2024/04/01 02:14:55;;;;;;;31.10;26.40;;;;;;;;;;4902253;28;20613;-74
2024/04/01 02:17:23;;;;;;;31.40;26.50;;;;;;;;;;4916057;28;20225;-74
2024/04/01 02:19:51;;;;;;;29.93;26.73;;;;;;;;;;4905169;29;20225;-74
2024/04/01 02:22:22;;;;;;;34.57;28.57;;;;;;;;;;4898586;29;20236;-74
2024/04/01 02:24:50;;;;;;;33.07;29.47;;;;;;;;;;4888639;29;20234;-75
2024/04/01 02:27:16;;;;;;;33.40;27.40;;;;;;;;;;4920183;28;20224;-74
2024/04/01 02:29:41;;;;;;;32.43;28.07;;;;;;;;;;4933995;28;20275;-74
2024/04/01 02:32:11;;;;;;;37.47;29.50;;;;;;;;;;4936869;28;20224;-74
2024/04/01 02:34:41;;;;;;;37.17;28.80;;;;;;;;;;4909425;29;20450;-74
2024/04/01 02:37:10;;;;;;;33.83;28.80;;;;;;;;;;4924513;28;20723;-74
2024/04/01 02:39:40;;;;;;;37.10;30.23;;;;;;;;;;4937741;28;20283;-73
2024/04/01 02:42:09;;;;;;;36.77;29.93;;;;;;;;;;4931702;28;20232;-73
2024/04/01 02:44:34;;;;;;;36.40;30.67;;;;;;;;;;4891227;29;20235;-73
2024/04/01 02:47:04;;;;;;;37.93;30.27;;;;;;;;;;4919107;28;20685;-74
2024/04/01 02:49:32;;;;;;;37.83;30.60;;;;;;;;;;4930396;28;20703;-73
2024/04/01 02:52:00;;;;;;;38.67;30.77;;;;;;;;;;4921707;28;20229;-73
2024/04/01 02:54:27;;;;;;;37.23;31.30;;;;;;;;;;4918742;28;20228;-74
2024/04/01 02:56:55;;;;;;;36.57;30.47;;;;;;;;;;4935303;28;20279;-74
2024/04/01 02:59:20;;;;;;;39.43;31.93;;;;;;;;;;4918694;28;20282;-73
2024/04/01 03:01:48;;;;;;;42.40;32.30;;;;;;;;;;4903381;29;20268;-74
2024/04/01 03:04:16;;;;;;;36.63;32.53;;;;;;;;;;4918794;28;20225;-74
2024/04/01 03:06:42;;;;;;;37.60;32.80;;;;;;;;;;4919079;28;20235;-74
2024/04/01 03:09:10;;;;;;;43.30;32.50;;;;;;;;;;4904963;28;20229;-74
2024/04/01 03:11:37;;;;;;;44.10;32.50;;;;;;;;;;4919359;28;20223;-74
2024/04/01 03:14:03;;;;;;;40.57;31.80;;;;;;;;;;4902541;28;20686;-74
2024/04/01 03:16:28;;;;;;;40.27;30.27;;;;;;;;;;4908575;28;20227;-74
2024/04/01 03:18:57;;;;;;;41.90;32.40;;;;;;;;;;4903551;28;20224;-74
2024/04/01 03:21:25;;;;;;;37.33;31.67;;;;;;;;;;4907931;28;20226;-74
2024/04/01 03:23:52;;;;;;;42.23;30.93;;;;;;;;;;4885208;29;20244;-73
2024/04/01 03:26:18;;;;;;;47.97;32.50;;;;;;;;;;4900782;28;20228;-73
2024/04/01 03:28:46;;;;;;;40.63;33.73;;;;;;;;;;4902802;28;20227;-74
2024/04/01 03:31:14;;;;;;;41.50;33.37;;;;;;;;;;4937034;28;20228;-74
2024/04/01 03:33:44;;;;;;;45.63;34.37;;;;;;;;;;4934431;28;21737;-75
2024/04/01 03:36:09;;;;;;;47.23;34.93;;;;;;;;;;4920063;28;20687;-74
2024/04/01 03:38:38;;;;;;;46.83;33.90;;;;;;;;;;4919420;29;20230;-74
2024/04/01 03:41:06;;;;;;;47.37;36.47;;;;;;;;;;4919570;28;20330;-74
2024/04/01 03:43:31;;;;;;;46.00;35.93;;;;;;;;;;4907384;29;20235;-74
2024/04/01 03:45:58;;;;;;;48.93;37.20;;;;;;;;;;4892695;29;20231;-74
2024/04/01 03:48:26;;;;;;;48.57;37.23;;;;;;;;;;4907316;28;20220;-74
2024/04/01 03:50:58;;;;;;;46.57;36.47;;;;;;;;;;4920031;28;20287;-73
2024/04/01 03:53:24;;;;;;;49.87;37.40;;;;;;;;;;4927048;28;20271;-74
2024/04/01 03:55:52;;;;;;;47.60;37.93;;;;;;;;;;4924012;28;20691;-73
2024/04/01 04:02:06;;;;;;;51.40;38.40;;;;;;;;;;4904960;28;20271;-74
2024/04/01 04:04:32;;;;;;;54.77;40.10;;;;;;;;;;4903711;29;20237;-74
2024/04/01 04:07:01;;;;;;;52.90;40.70;;;;;;;;;;4919596;28;20661;-74
2024/04/01 04:09:33;;;;;;;54.27;39.33;;;;;;;;;;4933147;28;20233;-74
2024/04/01 04:12:01;;;;;;;52.47;39.37;;;;;;;;;;4922428;28;20212;-74
2024/04/01 04:14:31;;;;;;;54.87;41.27;;;;;;;;;;4911461;28;20223;-74
2024/04/01 04:17:02;;;;;;;55.10;40.53;;;;;;;;;;4919311;28;20702;-74
2024/04/01 04:19:32;;;;;;;56.03;40.43;;;;;;;;;;4904526;28;20216;-74
2024/04/01 04:22:00;;;;;;;57.30;40.67;;;;;;;;;;4893339;29;20225;-74
2024/04/01 04:24:26;;;;;;;55.20;41.27;;;;;;;;;;4898808;28;20308;-75
2024/04/01 04:26:52;;;;;;;50.70;39.13;;;;;;;;;;4904357;29;20725;-74
2024/04/01 04:29:17;;;;;;;48.63;38.90;;;;;;;;;;4902591;28;20718;-74
2024/04/01 04:31:54;;;;;;;49.57;36.57;;;;;;;;;;4937765;28;20225;-74
2024/04/01 04:34:22;;;;;;;47.73;36.43;;;;;;;;;;4915817;28;20303;-74
2024/04/01 04:36:48;;;;;;;49.30;36.07;;;;;;;;;;4902844;28;20251;-74
2024/04/01 04:39:24;;;;;;;49.33;36.43;;;;;;;;;;4904239;29;20291;-74
2024/04/01 04:41:52;;;;;;;47.73;36.33;;;;;;;;;;4906300;28;20553;-74
2024/04/01 04:44:22;;;;;;;49.03;35.93;;;;;;;;;;4933640;28;20323;-74
2024/04/01 04:46:48;;;;;;;44.57;34.47;;;;;;;;;;4903009;29;20232;-74
2024/04/01 04:49:17;;;;;;;42.13;35.47;;;;;;;;;;4918587;29;20293;-74
2024/04/01 04:51:44;;;;;;;44.63;35.50;;;;;;;;;;4933321;28;20235;-74
2024/04/01 04:54:14;;;;;;;48.07;36.17;;;;;;;;;;4910793;28;20228;-74
2024/04/01 04:56:39;;;;;;;49.80;37.00;;;;;;;;;;4918162;28;20231;-74
2024/04/01 04:59:10;;;;;;;48.77;36.67;;;;;;;;;;4932753;28;20228;-75
2024/04/01 05:01:38;;;;;;;47.00;37.27;;;;;;;;;;4905479;28;20715;-74
2024/04/01 05:04:04;;;;;;;51.67;37.30;;;;;;;;;;4879952;29;20256;-74
2024/04/01 05:06:32;;;;;;;51.20;37.90;;;;;;;;;;4910301;28;20228;-74
2024/04/01 05:09:00;;;;;;;50.63;38.43;;;;;;;;;;4935465;28;20307;-73
2024/04/01 05:11:26;;;;;;;53.57;39.93;;;;;;;;;;4886408;28;20283;-74
2024/04/01 05:13:56;;;;;;;52.70;40.80;;;;;;;;;;4899035;29;20738;-75
2024/04/01 05:16:23;;;;;;;46.93;38.40;;;;;;;;;;4917213;28;20331;-74
2024/04/01 05:18:53;;;;;;;57.53;40.33;;;;;;;;;;4912245;28;22014;-74
2024/04/01 05:21:22;;;;;;;55.80;41.40;;;;;;;;;;4933509;28;20289;-74
2024/04/01 05:23:48;;;;;;;52.50;40.40;;;;;;;;;;4917930;28;20237;-75
2024/04/01 05:26:15;;;;;;;55.10;40.33;;;;;;;;;;4901667;29;20224;-75
2024/04/01 05:28:43;;;;;;;52.60;39.60;;;;;;;;;;4903432;29;20703;-75
2024/04/01 05:31:11;;;;;;;52.77;39.80;;;;;;;;;;4918388;28;20231;-75
2024/04/01 05:33:40;;;;;;;50.53;39.03;;;;;;;;;;4906059;29;20279;-75
2024/04/01 05:36:07;;;;;;;51.40;40.63;;;;;;;;;;4929683;28;20687;-74
2024/04/01 05:38:35;;;;;;;48.07;39.47;;;;;;;;;;4924718;28;20483;-74
2024/04/01 05:41:03;;;;;;;49.40;39.90;;;;;;;;;;4920067;28;20223;-75
2024/04/01 05:43:28;;;;;;;51.73;39.00;;;;;;;;;;4915000;28;20327;-74
2024/04/01 05:45:59;;;;;;;48.60;39.77;;;;;;;;;;4893875;29;20216;-75
2024/04/01 05:48:24;;;;;;;49.20;39.47;;;;;;;;;;4885005;29;20229;-75
2024/04/01 05:50:53;;;;;;;52.23;39.00;;;;;;;;;;4917801;28;20228;-75
2024/04/01 05:53:18;;;;;;;49.97;38.10;;;;;;;;;;4933017;28;20308;-75
2024/04/01 05:55:46;;;;;;;50.50;39.07;;;;;;;;;;4915943;29;20778;-74
2024/04/01 05:58:12;;;;;;;53.87;40.83;;;;;;;;;;4918178;28;20606;-75
2024/04/01 06:00:40;;;;;;;51.50;40.47;;;;;;;;;;4917938;28;20224;-75
2024/04/01 06:03:05;;;;;;;54.37;40.60;;;;;;;;;;4894969;28;20243;-75
2024/04/01 06:05:36;;;;;;;50.17;40.30;;;;;;;;;;4900672;28;20232;-74
2024/04/01 06:08:09;;;;;;;53.63;41.47;;;;;;;;;;4887597;29;20307;-74
2024/04/01 06:10:37;;;;;;;50.53;39.80;;;;;;;;;;4901604;29;21001;-75
2024/04/01 06:13:07;;;;;;;47.07;38.37;;;;;;;;;;4924588;28;20645;-75
2024/04/01 06:15:35;;;;;;;51.07;39.03;;;;;;;;;;4915742;28;20459;-76
2024/04/01 06:18:03;;;;;;;46.77;38.47;;;;;;;;;;4918207;28;20239;-74
2024/04/01 06:20:31;;;;;;;49.43;37.83;;;;;;;;;;4931851;28;20703;-74
2024/04/01 06:23:02;;;;;;;47.10;36.23;;;;;;;;;;4901314;29;20228;-75
2024/04/01 06:25:27;;;;;;;46.70;36.23;;;;;;;;;;4932806;28;20279;-74
2024/04/01 06:27:57;;;;;;;47.13;35.77;;;;;;;;;;4933399;28;20228;-74
2024/04/01 06:30:23;;;;;;;44.47;37.20;;;;;;;;;;4905053;28;20265;-75
2024/04/01 06:32:53;;;;;;;45.00;37.13;;;;;;;;;;4919036;29;20220;-74
2024/04/01 06:35:18;;;;;;;48.47;38.63;;;;;;;;;;4917685;28;20227;-74
2024/04/01 06:37:46;;;;;;;45.87;36.77;;;;;;;;;;4930491;28;20228;-74
2024/04/01 06:40:15;;;;;;;44.60;36.50;;;;;;;;;;4892752;28;20280;-75
2024/04/01 06:42:48;;;;;;;43.07;38.17;;;;;;;;;;4929422;28;20618;-73
2024/04/01 06:45:14;;;;;;;44.43;36.57;;;;;;;;;;4908891;29;20274;-74
2024/04/01 06:47:39;;;;;;;43.83;36.67;;;;;;;;;;4920403;28;20714;-74
2024/04/01 06:50:07;;;;;;;50.30;38.57;;;;;;;;;;4913821;28;20691;-74
2024/04/01 06:52:35;;;;;;;45.23;36.17;;;;;;;;;;4918141;28;20228;-74
2024/04/01 06:55:04;;;;;;;43.70;36.20;;;;;;;;;;4901458;28;20236;-74
2024/04/01 06:57:32;;;;;;;43.63;36.93;;;;;;;;;;4916657;28;20247;-74
2024/04/01 06:59:57;;;;;;;46.27;38.43;;;;;;;;;;4926500;28;20236;-74
2024/04/01 07:02:25;;;;;;;49.53;38.90;;;;;;;;;;4904906;28;20247;-74
2024/04/01 07:04:56;;;;;;;48.43;37.53;;;;;;;;;;4917924;28;20224;-74
2024/04/01 07:07:22;;;;;;;45.93;39.67;;;;;;;;;;4898241;28;20227;-76
2024/04/01 07:09:47;;;;;;;48.90;40.43;;;;;;;;;;4900264;29;20221;-75
2024/04/01 07:12:16;;;;;;;47.63;38.63;;;;;;;;;;4933406;28;20223;-75
2024/04/01 07:14:44;;;;;;;46.17;38.83;;;;;;;;;;4903756;28;20250;-75
2024/04/01 07:17:13;;;;;;;52.57;39.37;;;;;;;;;;4934478;28;20744;-75
2024/04/01 07:19:41;;;;;;;47.57;39.13;;;;;;;;;;4913153;28;20260;-74
2024/04/01 07:22:06;;;;;;;54.20;40.20;;;;;;;;;;4923703;28;20588;-74
2024/04/01 07:24:37;;;;;;;49.70;38.47;;;;;;;;;;4917810;28;20233;-73
2024/04/01 07:27:05;;;;;;;48.93;39.47;;;;;;;;;;4900483;28;20314;-76
2024/04/01 07:29:30;;;;;;;50.07;38.93;;;;;;;;;;4923693;28;20223;-76
2024/04/01 07:32:01;;;;;;;48.93;38.40;;;;;;;;;;4937383;28;20665;-74
2024/04/01 07:34:26;;;;;;;46.50;37.50;;;;;;;;;;4904273;29;20604;-74
2024/04/01 07:36:52;;;;;;;48.90;38.77;;;;;;;;;;4885279;29;20232;-74
2024/04/01 07:39:20;;;;;;;50.40;37.27;;;;;;;;;;4916204;28;20212;-76
2024/04/01 07:41:45;;;;;;;44.00;37.07;;;;;;;;;;4932459;28;20228;-75
2024/04/01 07:44:13;;;;;;;43.80;37.20;;;;;;;;;;4903526;29;20674;-76
2024/04/01 07:46:40;;;;;;;43.20;36.67;;;;;;;;;;4916626;28;20231;-75
2024/04/01 07:49:08;;;;;;;42.20;36.20;;;;;;;;;;4901999;28;20224;-76
2024/04/01 07:51:36;;;;;;;43.37;36.83;;;;;;;;;;4934274;28;20958;-75
2024/04/01 07:54:02;;;;;;;49.60;38.67;;;;;;;;;;4915121;28;20233;-75
2024/04/01 07:56:30;;;;;;;44.00;36.20;;;;;;;;;;4901925;28;20235;-75
2024/04/01 07:59:00;;;;;;;50.63;40.70;;;;;;;;;;4897869;29;20537;-76
2024/04/01 08:01:29;;;;;;;50.50;39.50;;;;;;;;;;4920968;28;20221;-76
2024/04/01 08:03:57;;;;;;;54.30;40.77;;;;;;;;;;4902086;29;20323;-76
2024/04/01 08:06:25;;;;;;;52.27;42.20;;;;;;;;;;4902907;28;20245;-75
2024/04/01 08:08:50;;;;;;;53.87;42.37;;;;;;;;;;4907301;28;20271;-76
2024/04/01 08:11:16;;;;;;;52.77;43.00;;;;;;;;;;4877755;28;20224;-75
2024/04/01 08:13:41;;;;;;;56.67;45.13;;;;;;;;;;4914206;28;20406;-76
2024/04/01 08:16:07;;;;;;;59.47;45.20;;;;;;;;;;4885868;28;20236;-76
2024/04/01 08:18:35;;;;;;;59.37;43.87;;;;;;;;;;4914619;29;20243;-75
2024/04/01 08:21:05;;;;;;;55.53;44.83;;;;;;;;;;4934270;28;20220;-74
2024/04/01 08:23:33;;;;;;;56.87;45.07;;;;;;;;;;4933253;28;20263;-75
2024/04/01 08:25:59;;;;;;;61.10;45.07;;;;;;;;;;4886177;29;20599;-76
2024/04/01 08:28:29;;;;;;;57.40;44.60;;;;;;;;;;4935102;28;20775;-75
2024/04/01 08:30:57;;;;;;;61.10;46.57;;;;;;;;;;4889527;29;20225;-76
2024/04/01 08:33:25;;;;;;;56.33;45.40;;;;;;;;;;4917899;28;20734;-75
2024/04/01 08:35:52;;;;;;;62.03;44.57;;;;;;;;;;4918922;28;20227;-76
2024/04/01 08:38:21;;;;;;;59.07;44.77;;;;;;;;;;4896490;28;20633;-76
2024/04/01 08:40:55;;;;;;;62.23;45.57;;;;;;;;;;4934028;28;20224;-76
2024/04/01 08:43:46;;;;;;;65.53;46.00;;;;;;;;;;4918711;28;20685;-75
2024/04/01 08:46:14;;;;;;;63.53;45.63;;;;;;;;;;4914913;28;20219;-75
2024/04/01 08:48:42;;;;;;;59.27;46.53;;;;;;;;;;4919745;28;20738;-76
2024/04/01 08:51:08;;;;;;;63.87;47.60;;;;;;;;;;4909077;28;20706;-75
2024/04/01 08:54:00;;;;;;;61.07;46.43;;;;;;;;;;4906879;29;20228;-76
2024/04/01 08:56:28;;;;;;;63.60;47.63;;;;;;;;;;4904635;28;20283;-75
2024/04/01 08:58:57;;;;;;;68.63;47.83;;;;;;;;;;4931926;28;20233;-74
2024/04/01 09:01:25;;;;;;;68.57;47.37;;;;;;;;;;4907536;28;20291;-76
2024/04/01 09:03:55;;;;;;;60.00;47.67;;;;;;;;;;4920518;28;20632;-75
2024/04/01 09:06:28;;;;;;;64.87;48.50;;;;;;;;;;4910568;28;20251;-76
2024/04/01 09:08:54;;;;;;;61.10;47.10;;;;;;;;;;4907602;28;20232;-76
2024/04/01 09:11:24;;;;;;;61.30;47.40;;;;;;;;;;4887148;28;20228;-76
2024/04/01 09:13:51;;;;;;;56.23;45.80;;;;;;;;;;4918623;28;20247;-75
2024/04/01 09:16:24;;;;;;;57.13;43.67;;;;;;;;;;4905025;28;20224;-77
2024/04/01 09:18:50;;;;;;;51.97;42.37;;;;;;;;;;4905720;28;20231;-76
2024/04/01 09:21:20;;;;;;;59.70;43.37;;;;;;;;;;4918298;28;20310;-76
2024/04/01 09:23:53;;;;;;;52.67;42.27;;;;;;;;;;4917252;28;20232;-76
2024/04/01 09:26:20;;;;;;;49.10;41.63;;;;;;;;;;4918366;28;20228;-75
2024/04/01 09:28:46;;;;;;;50.33;42.57;;;;;;;;;;4902880;29;20326;-76
2024/04/01 09:31:13;;;;;;;51.50;41.77;;;;;;;;;;4916460;28;20229;-74
2024/04/01 09:33:40;;;;;;;49.50;41.10;;;;;;;;;;4905844;29;20609;-75
2024/04/01 09:36:07;;;;;;;47.33;40.57;;;;;;;;;;4903040;28;20292;-74
2024/04/01 09:38:35;;;;;;;48.93;41.07;;;;;;;;;;4901630;29;20228;-76
2024/04/01 09:41:03;;;;;;;48.90;40.23;;;;;;;;;;4917841;28;20609;-76
2024/04/01 09:43:33;;;;;;;45.43;39.10;;;;;;;;;;4901065;28;20650;-74
2024/04/01 09:45:59;;;;;;;43.60;38.90;;;;;;;;;;4906729;28;20885;-75
2024/04/01 09:48:31;;;;;;;43.97;38.67;;;;;;;;;;4889893;29;20221;-75
2024/04/01 09:51:02;;;;;;;45.57;37.20;;;;;;;;;;4904370;28;20231;-75
2024/04/01 09:53:28;;;;;;;40.87;36.10;;;;;;;;;;4893594;29;20297;-76
2024/04/01 09:56:00;;;;;;;39.03;34.83;;;;;;;;;;4935041;28;20932;-76
2024/04/01 09:58:56;;;;;;;38.23;34.03;;;;;;;;;;4917915;28;20317;-75
2024/04/01 10:01:49;;;;;;;38.40;33.53;;;;;;;;;;4934875;28;20778;-74
2024/04/01 10:04:38;;;;;;;40.17;32.83;;;;;;;;;;4901345;29;20232;-76
2024/04/01 10:07:37;;;;;;;34.90;31.33;;;;;;;;;;4922598;28;20236;-75
2024/04/01 10:10:24;;;;;;;36.77;31.50;;;;;;;;;;4912994;28;20727;-77
2024/04/01 10:13:14;;;;;;;34.97;31.17;;;;;;;;;;4916396;28;20279;-76
2024/04/01 10:16:22;;;;;;;36.67;31.33;;;;;;;;;;4910142;29;20656;-75
2024/04/01 10:19:10;;;;;;;37.60;31.07;;;;;;;;;;4918938;29;20248;-76
2024/04/01 10:21:51;;;;;;;35.47;29.90;;;;;;;;;;4904026;29;20735;-76
2024/04/01 10:24:46;;;;;;;34.77;29.97;;;;;;;;;;4900582;28;20256;-75
2024/04/01 10:27:33;;;;;;;35.97;30.33;;;;;;;;;;4932796;28;20224;-75
2024/04/01 10:30:42;;;;;;;36.87;30.87;;;;;;;;;;4918696;28;20227;-75
2024/04/01 10:33:08;;;;;;;38.30;30.50;;;;;;;;;;4898095;28;20253;-76
2024/04/01 10:35:45;;;;;;;34.60;30.93;;;;;;;;;;4917162;28;20721;-74
2024/04/01 10:38:32;;;;;;;35.00;31.03;;;;;;;;;;4903523;28;20247;-75
2024/04/01 10:41:32;;;;;;;37.93;33.63;;;;;;;;;;4917691;28;20232;-76
2024/04/01 10:43:57;;;;;;;37.10;32.67;;;;;;;;;;4899882;29;20681;-75
2024/04/01 10:46:38;;;;;;;38.67;32.70;;;;;;;;;;4903143;28;20306;-75
2024/04/01 10:49:03;;;;;;;34.87;30.87;;;;;;;;;;4927745;28;20216;-77
2024/04/01 10:51:47;;;;;;;33.67;30.08;;;;;;;;;;4901765;28;20638;-76
2024/04/01 10:54:16;;;;;;;32.78;29.33;;;;;;;;;;4905987;28;20225;-75
2024/04/01 10:57:16;;;;;;;37.60;28.85;;;;;;;;;;4917483;28;20743;-75
2024/04/01 11:00:05;;;;;;;34.72;27.33;;;;;;;;;;4916089;28;20219;-75
2024/04/01 11:02:49;;;;;;;32.95;27.42;;;;;;;;;;4916579;28;20229;-76
2024/04/01 11:05:37;;;;;;;32.58;27.02;;;;;;;;;;4898862;29;20283;-75
2024/04/01 11:08:21;;;;;;;34.97;27.73;;;;;;;;;;4912241;28;20239;-75
2024/04/01 11:10:58;;;;;;;32.63;27.83;;;;;;;;;;4934882;28;20592;-74
2024/04/01 11:13:28;;;;;;;34.65;26.85;;;;;;;;;;4912674;29;20323;-74
2024/04/01 11:16:01;;;;;;;29.55;26.17;;;;;;;;;;4917904;28;20221;-75
2024/04/01 11:18:29;;;;;;;28.70;25.70;;;;;;;;;;4900709;28;20221;-75
2024/04/01 11:21:08;;;;;;;30.45;24.60;;;;;;;;;;4907875;28;20227;-75
2024/04/01 11:23:54;;;;;;;34.03;25.05;;;;;;;;;;4931242;28;20625;-75
2024/04/01 11:26:49;;;;;;;28.48;24.55;;;;;;;;;;4902052;28;20224;-75
2024/04/01 11:29:29;;;;;;;34.72;26.15;;;;;;;;;;4932518;28;20230;-75
2024/04/01 11:31:57;;;;;;;28.75;24.95;;;;;;;;;;4916069;28;20254;-75
2024/04/01 11:34:45;;;;;;;28.63;24.70;;;;;;;;;;4914442;28;20228;-74
2024/04/01 11:37:17;;;;;;;30.30;24.67;;;;;;;;;;4913149;28;20621;-74
2024/04/01 11:39:46;;;;;;;30.15;24.02;;;;;;;;;;4886798;29;20228;-74
2024/04/01 11:42:12;;;;;;;31.25;24.98;;;;;;;;;;4914784;28;20288;-76
2024/04/01 11:44:37;;;;;;;29.63;24.15;;;;;;;;;;4888955;29;20603;-75
2024/04/01 11:47:03;;;;;;;29.48;24.02;;;;;;;;;;4915690;28;20243;-76
2024/04/01 11:49:41;;;;;;;30.70;24.65;;;;;;;;;;4902730;29;20255;-75
2024/04/01 11:52:13;;;;;;;27.75;24.08;;;;;;;;;;4914605;28;20902;-74
2024/04/01 11:54:41;;;;;;;31.58;24.75;;;;;;;;;;4932493;28;20774;-76
2024/04/01 11:57:07;;;;;;;29.15;25.60;;;;;;;;;;4921505;28;20275;-75
2024/04/01 11:59:37;;;;;;;30.60;25.45;;;;;;;;;;4905932;29;20255;-76
2024/04/01 12:02:26;;;;;;;29.63;25.38;;;;;;;;;;4888541;28;20599;-76
2024/04/01 12:04:59;;;;;;;29.50;25.02;;;;;;;;;;4911340;29;20240;-75
2024/04/01 12:07:26;;;;;;;30.42;24.67;;;;;;;;;;4905694;29;20224;-75
2024/04/01 12:09:52;;;;;;;33.05;25.08;;;;;;;;;;4906112;29;20574;-75
2024/04/01 12:12:22;;;;;;;29.10;25.90;;;;;;;;;;4903186;28;20711;-75
2024/04/01 12:14:48;;;;;;;30.83;26.08;;;;;;;;;;4919583;28;20221;-75
2024/04/01 12:17:13;;;;;;;32.35;27.50;;;;;;;;;;4917909;28;20221;-75
2024/04/01 12:19:42;;;;;;;34.25;27.33;;;;;;;;;;4902680;29;20707;-76
2024/04/01 12:22:08;;;;;;;38.17;29.20;;;;;;;;;;4904903;29;20267;-76
2024/04/01 12:24:33;;;;;;;37.23;30.80;;;;;;;;;;4899829;29;20224;-75
2024/04/01 12:27:03;;;;;;;43.47;32.57;;;;;;;;;;4903612;28;20223;-75
2024/04/01 12:29:31;;;;;;;40.83;32.47;;;;;;;;;;4925740;28;20228;-75
2024/04/01 12:32:00;;;;;;;42.40;33.63;;;;;;;;;;4921715;28;20220;-76
2024/04/01 12:34:25;;;;;;;38.17;31.53;;;;;;;;;;4925590;28;20235;-76
2024/04/01 12:36:56;;;;;;;43.90;32.37;;;;;;;;;;4909257;29;20220;-75
2024/04/01 12:39:21;;;;;;;40.30;31.70;;;;;;;;;;4918276;28;20221;-75
2024/04/01 12:41:49;;;;;;;36.53;30.23;;;;;;;;;;4881235;29;20587;-75
2024/04/01 12:44:19;;;;;;;40.83;31.27;;;;;;;;;;4893719;29;20232;-74
2024/04/01 12:46:45;;;;;;;35.30;29.77;;;;;;;;;;4911626;29;20229;-75
2024/04/01 12:49:16;;;;;;;39.17;30.47;;;;;;;;;;4887270;28;20232;-75
2024/04/01 12:51:43;;;;;;;34.40;29.83;;;;;;;;;;4893572;29;20694;-75
2024/04/01 12:54:22;;;;;;;31.53;27.93;;;;;;;;;;4905095;28;20229;-73
2024/04/01 12:56:56;;;;;;;29.77;26.67;;;;;;;;;;4912079;28;20231;-76
2024/04/01 12:59:39;;;;;;;30.90;26.83;;;;;;;;;;4918286;28;20699;-76
2024/04/01 13:02:20;;;;;;;32.63;26.83;;;;;;;;;;4920093;28;20260;-76
2024/04/01 13:04:48;;;;;;;27.37;24.53;;;;;;;;;;4887975;29;20682;-76
2024/04/01 13:07:43;;;;;;;26.27;23.33;;;;;;;;;;4903002;29;20674;-76
2024/04/01 13:10:08;;;;;;;27.10;24.33;;;;;;;;;;4916673;28;20224;-77
2024/04/01 13:12:54;;;;;;;28.80;25.57;;;;;;;;;;4903045;29;20220;-76
2024/04/01 13:15:29;;;;;;;29.73;26.83;;;;;;;;;;4918362;28;20594;-76
2024/04/01 13:18:00;;;;;;;29.23;26.23;;;;;;;;;;4911566;29;20572;-77
2024/04/01 13:20:39;;;;;;;30.07;27.07;;;;;;;;;;4935159;28;20312;-76
2024/04/01 13:23:19;;;;;;;28.67;25.97;;;;;;;;;;4918364;28;20265;-77
2024/04/01 13:25:57;;;;;;;30.40;27.43;;;;;;;;;;4917253;29;20282;-77
2024/04/01 13:28:50;;;;;;;31.00;27.97;;;;;;;;;;4886723;28;20219;-77
2024/04/01 13:31:34;;;;;;;31.80;28.50;;;;;;;;;;4892160;28;20751;-77
2024/04/01 13:34:25;;;;;;;35.13;31.80;;;;;;;;;;4932598;28;20253;-75
2024/04/01 13:37:24;;;;;;;31.53;28.47;;;;;;;;;;4935974;28;20231;-76
2024/04/01 13:40:09;;;;;;;30.37;27.37;;;;;;;;;;4929484;28;20577;-77
2024/04/01 13:42:57;;;;;;;31.03;27.97;;;;;;;;;;4919981;28;20248;-77
2024/04/01 13:45:41;;;;;;;30.97;27.70;;;;;;;;;;4902620;29;20247;-76
2024/04/01 13:48:48;;;;;;;37.53;33.80;;;;;;;;;;4918971;28;20224;-77
2024/04/01 13:51:29;;;;;;;32.30;28.97;;;;;;;;;;4900536;29;20236;-77
2024/04/01 13:54:16;;;;;;;31.43;28.27;;;;;;;;;;4899854;28;20239;-77
2024/04/01 13:56:49;;;;;;;30.60;27.20;;;;;;;;;;4901442;28;20247;-76
2024/04/01 13:59:35;;;;;;;32.20;29.10;;;;;;;;;;4931063;28;20228;-77
2024/04/01 14:02:08;;;;;;;38.20;34.40;;;;;;;;;;4929845;28;20225;-77
2024/04/01 14:04:34;;;;;;;43.33;39.17;;;;;;;;;;4900018;29;20228;-76
2024/04/01 14:07:02;;;;;;;27.97;25.47;;;;;;;;;;4915557;28;20232;-77
2024/04/01 14:09:44;;;;;;;32.83;29.50;;;;;;;;;;4905577;28;20236;-76
2024/04/01 14:12:20;;;;;;;29.17;26.37;;;;;;;;;;4921450;28;20232;-76
2024/04/01 14:14:52;;;;;;;30.80;27.60;;;;;;;;;;4892258;29;20722;-76
2024/04/01 14:17:23;;;;;;;31.67;28.30;;;;;;;;;;4917895;28;20727;-77
2024/04/01 14:19:58;;;;;;;33.00;29.53;;;;;;;;;;4918612;28;20235;-77
2024/04/01 14:22:27;;;;;;;33.07;29.53;;;;;;;;;;4902138;28;20241;-74
2024/04/01 14:24:56;;;;;;;31.23;28.17;;;;;;;;;;4877941;29;20232;-77
2024/04/01 14:27:24;;;;;;;31.50;28.30;;;;;;;;;;4902842;28;20228;-77
2024/04/01 14:29:52;;;;;;;31.07;27.90;;;;;;;;;;4924289;28;20354;-77
2024/04/01 14:32:23;;;;;;;34.00;30.63;;;;;;;;;;4922009;28;20311;-77
2024/04/01 14:34:49;;;;;;;35.90;32.40;;;;;;;;;;4932484;28;20223;-76
2024/04/01 14:37:18;;;;;;;36.17;32.67;;;;;;;;;;4919229;28;20596;-78
2024/04/01 14:39:45;;;;;;;36.57;32.90;;;;;;;;;;4933630;28;20291;-77
2024/04/01 14:42:13;;;;;;;33.30;30.00;;;;;;;;;;4915694;28;20628;-76